createdAt,value
2024-05-09T00:00:36.287Z,7.13
2024-05-09T00:03:10.984Z,7.08
2024-05-09T00:05:40.932Z,7.05
2024-05-09T00:08:09.502Z,7.03
2024-05-09T00:10:38.717Z,6.95
2024-05-09T00:13:07.566Z,6.88
2024-05-09T00:15:35.202Z,6.83
2024-05-09T00:18:03.514Z,6.81
2024-05-09T00:20:37.811Z,6.80
2024-05-09T00:23:08.845Z,6.75
2024-05-09T00:25:36.160Z,6.71
2024-05-09T00:28:03.188Z,6.64
2024-05-09T00:30:35.145Z,6.56
2024-05-09T00:33:05.503Z,6.52
2024-05-09T00:35:33.335Z,6.45
2024-05-09T00:38:00.392Z,6.39
2024-05-09T00:40:37.640Z,6.34
2024-05-09T00:43:07.398Z,6.29
2024-05-09T00:45:34.926Z,6.31
2024-05-09T00:48:05.223Z,6.32
2024-05-09T00:50:38.075Z,6.29
2024-05-09T00:53:11.450Z,6.21
2024-05-09T00:55:39.350Z,6.14
2024-05-09T00:58:10.634Z,6.14
2024-05-09T01:00:40.294Z,6.12
2024-05-09T01:03:11.014Z,6.09
2024-05-09T01:05:40.199Z,6.02
2024-05-09T01:08:08.006Z,5.99
2024-05-09T01:10:36.274Z,5.97
2024-05-09T01:13:04.605Z,5.95
2024-05-09T01:15:31.936Z,5.91
2024-05-09T01:18:01.687Z,5.92
2024-05-09T01:20:39.132Z,5.95
2024-05-09T01:23:10.021Z,5.89
2024-05-09T01:25:37.196Z,5.86
2024-05-09T01:28:04.129Z,5.85
2024-05-09T01:30:34.559Z,5.82
2024-05-09T01:33:04.467Z,5.77
2024-05-09T01:35:31.677Z,5.76
2024-05-09T01:37:58.423Z,5.75
2024-05-09T01:40:33.784Z,5.74
2024-05-09T01:43:04.877Z,5.67
2024-05-09T01:45:31.756Z,5.60
2024-05-09T01:47:58.895Z,5.57
2024-05-09T01:50:37.069Z,5.56
2024-05-09T01:53:07.812Z,5.59
2024-05-09T01:55:34.760Z,5.66
2024-05-09T01:58:01.479Z,5.75
2024-05-09T02:00:37.934Z,5.86
2024-05-09T02:03:15.402Z,5.98
2024-05-09T02:05:46.392Z,6.11
2024-05-09T02:08:15.188Z,6.27
2024-05-09T02:10:42.940Z,6.40
2024-05-09T02:13:09.847Z,6.53
2024-05-09T02:15:36.622Z,6.60
2024-05-09T02:18:03.845Z,6.70
2024-05-09T02:20:36.164Z,6.78
2024-05-09T02:23:05.287Z,6.84
2024-05-09T02:25:32.772Z,6.89
2024-05-09T02:27:59.776Z,6.95
2024-05-09T02:30:36.178Z,7.00
2024-05-09T02:33:07.671Z,7.04
2024-05-09T02:35:34.809Z,7.07
2024-05-09T02:38:01.831Z,7.10
2024-05-09T02:40:36.139Z,7.13
2024-05-09T02:43:06.043Z,7.15
2024-05-09T02:45:33.211Z,7.16
2024-05-09T02:48:00.520Z,7.17
2024-05-09T02:50:34.499Z,7.18
2024-05-09T02:53:05.603Z,7.20
2024-05-09T02:55:32.651Z,7.19
2024-05-09T02:57:59.477Z,7.21
2024-05-09T03:00:34.700Z,7.20
2024-05-09T03:03:08.308Z,7.16
2024-05-09T03:05:36.216Z,7.19
2024-05-09T03:08:03.311Z,7.17
2024-05-09T03:10:35.617Z,7.13
2024-05-09T03:13:14.050Z,7.17
2024-05-09T03:15:42.749Z,7.18
2024-05-09T03:18:10.049Z,7.18
2024-05-09T03:20:38.199Z,7.19
2024-05-09T03:23:08.107Z,7.20
2024-05-09T03:25:36.062Z,7.18
2024-05-09T03:28:02.944Z,7.16
2024-05-09T03:30:38.661Z,7.13
2024-05-09T03:33:15.445Z,7.14
2024-05-09T03:35:46.042Z,7.11
2024-05-09T03:38:13.014Z,7.00
2024-05-09T03:40:47.414Z,6.93
2024-05-09T03:43:14.591Z,6.84
2024-05-09T03:45:42.909Z,6.78
2024-05-09T03:48:10.107Z,6.85
2024-05-09T03:50:37.510Z,6.82
2024-05-09T03:53:04.937Z,6.73
2024-05-09T03:55:31.893Z,6.64
2024-05-09T03:57:58.815Z,6.54
2024-05-09T04:00:31.763Z,6.47
2024-05-09T04:03:06.098Z,6.50
2024-05-09T04:05:34.677Z,6.45
2024-05-09T04:08:01.642Z,6.37
2024-05-09T04:10:33.247Z,6.38
2024-05-09T04:13:01.944Z,6.36
2024-05-09T04:15:31.959Z,6.35
2024-05-09T04:17:59.119Z,6.40
2024-05-09T04:20:36.818Z,6.36
2024-05-09T04:23:07.890Z,6.31
2024-05-09T04:25:35.373Z,6.30
2024-05-09T04:28:02.267Z,6.32
2024-05-09T04:30:36.739Z,6.35
2024-05-09T04:33:07.858Z,6.41
2024-05-09T04:35:36.237Z,6.41
2024-05-09T04:38:03.525Z,6.46
2024-05-09T04:40:34.268Z,6.53
2024-05-09T04:43:07.579Z,6.61
2024-05-09T04:45:34.638Z,6.74
2024-05-09T04:48:02.277Z,6.83
2024-05-09T04:50:35.734Z,6.95
2024-05-09T04:53:07.005Z,7.09
2024-05-09T04:55:34.772Z,7.18
2024-05-09T04:58:01.910Z,7.30
2024-05-09T05:00:35.808Z,7.43
2024-05-09T05:03:07.917Z,7.62
2024-05-09T05:05:38.205Z,7.82
2024-05-09T05:08:05.871Z,8.02
2024-05-09T05:10:36.267Z,8.23
2024-05-09T05:13:17.974Z,8.51
2024-05-09T05:15:56.459Z,8.85
2024-05-09T05:18:29.218Z,9.17
2024-05-09T05:20:57.053Z,9.46
2024-05-09T05:23:24.769Z,9.81
2024-05-09T05:25:53.230Z,10.17
2024-05-09T05:28:20.537Z,10.50
2024-05-09T05:30:47.460Z,10.76
2024-05-09T05:33:16.066Z,11.01
2024-05-09T05:35:43.358Z,11.25
2024-05-09T05:38:11.244Z,11.49
2024-05-09T05:40:39.499Z,11.75
2024-05-09T05:43:09.772Z,12.07
2024-05-09T05:45:36.883Z,12.35
2024-05-09T05:48:05.944Z,12.56
2024-05-09T05:50:36.539Z,12.78
2024-05-09T05:53:08.941Z,12.99
2024-05-09T05:55:40.706Z,13.24
2024-05-09T05:58:11.400Z,13.48
2024-05-09T06:00:40.112Z,13.68
2024-05-09T06:03:09.484Z,13.89
2024-05-09T06:05:37.310Z,14.14
2024-05-09T06:08:04.725Z,14.34
2024-05-09T06:10:37.999Z,14.55
2024-05-09T06:13:07.506Z,14.69
2024-05-09T06:15:34.380Z,14.92
2024-05-09T06:18:01.684Z,15.03
2024-05-09T06:20:35.658Z,15.18
2024-05-09T06:23:08.814Z,15.31
2024-05-09T06:25:36.320Z,15.29
2024-05-09T06:28:03.363Z,15.45
2024-05-09T06:30:37.587Z,15.58
2024-05-09T06:33:07.864Z,15.72
2024-05-09T06:35:35.316Z,15.89
2024-05-09T06:38:02.530Z,15.95
2024-05-09T06:40:36.388Z,15.90
2024-05-09T06:43:17.570Z,15.73
2024-05-09T06:45:49.445Z,15.41
2024-05-09T06:48:19.458Z,15.11
2024-05-09T06:50:46.931Z,15.39
2024-05-09T06:53:15.001Z,15.87
2024-05-09T06:55:42.092Z,16.25
2024-05-09T06:58:09.522Z,16.62
2024-05-09T07:00:39.772Z,16.96
2024-05-09T07:03:14.779Z,17.20
2024-05-09T07:05:43.889Z,17.12
2024-05-09T07:08:10.799Z,16.87
2024-05-09T07:10:37.959Z,16.59
2024-05-09T07:13:12.274Z,16.46
2024-05-09T07:15:39.954Z,16.33
2024-05-09T07:18:10.945Z,16.27
2024-05-09T07:20:39.340Z,16.30
2024-05-09T07:23:08.937Z,16.18
2024-05-09T07:25:35.693Z,16.01
2024-05-09T07:28:02.464Z,15.78
2024-05-09T07:30:33.496Z,15.55
2024-05-09T07:33:02.566Z,15.31
2024-05-09T07:35:30.411Z,15.31
2024-05-09T07:37:57.484Z,15.20
2024-05-09T07:40:32.796Z,15.18
2024-05-09T07:43:07.792Z,15.22
2024-05-09T07:52:32.668Z,15.62
2024-05-09T07:55:53.956Z,15.62
2024-05-09T07:58:20.918Z,15.68
2024-05-09T08:00:47.725Z,15.71
2024-05-09T08:03:14.541Z,15.76
2024-05-09T08:05:41.529Z,15.66
2024-05-09T08:08:08.845Z,15.52
2024-05-09T08:10:35.581Z,15.38
2024-05-09T08:13:02.575Z,15.17
2024-05-09T08:15:29.609Z,15.11
2024-05-09T08:17:56.660Z,15.12
2024-05-09T08:20:30.951Z,15.34
2024-05-09T08:23:01.567Z,15.62
2024-05-09T08:25:28.599Z,15.62
2024-05-09T08:27:55.359Z,15.56
2024-05-09T08:30:30.012Z,15.83
2024-05-09T08:33:03.853Z,15.96
2024-05-09T08:35:30.662Z,15.91
2024-05-09T08:37:57.597Z,15.95
2024-05-09T08:40:31.069Z,16.08
2024-05-09T08:43:02.865Z,16.19
2024-05-09T08:45:31.433Z,16.40
2024-05-09T08:48:01.378Z,16.88
2024-05-09T08:50:35.934Z,17.38
2024-05-09T08:53:06.021Z,17.17
2024-05-09T08:55:32.941Z,16.97
2024-05-09T08:58:03.649Z,17.08
2024-05-09T09:00:36.793Z,17.04
2024-05-09T09:03:09.128Z,17.00
2024-05-09T09:05:39.696Z,17.07
2024-05-09T09:08:08.228Z,17.26
2024-05-09T09:10:35.701Z,17.20
2024-05-09T09:13:04.746Z,17.41
2024-05-09T09:15:32.254Z,17.59
2024-05-09T09:18:02.179Z,17.84
2024-05-09T09:20:36.310Z,17.89
2024-05-09T09:23:04.693Z,18.00
2024-05-09T09:25:32.103Z,18.20
2024-05-09T09:27:59.217Z,18.45
2024-05-09T09:30:36.382Z,18.54
2024-05-09T09:33:06.248Z,18.55
2024-05-09T09:35:34.192Z,18.66
2024-05-09T09:38:05.926Z,18.94
2024-05-09T09:40:42.396Z,19.04
2024-05-09T09:43:18.787Z,19.30
2024-05-09T09:45:49.887Z,19.32
2024-05-09T09:48:16.786Z,19.61
2024-05-09T09:50:45.422Z,20.29
2024-05-09T09:53:13.626Z,20.59
2024-05-09T09:55:40.471Z,20.58
2024-05-09T09:58:09.686Z,20.54
2024-05-09T10:00:38.873Z,20.44
2024-05-09T10:03:05.735Z,20.32
2024-05-09T10:05:34.369Z,20.57
2024-05-09T10:08:06.473Z,20.56
2024-05-09T10:10:36.674Z,20.25
2024-05-09T10:13:04.683Z,20.59
2024-05-09T10:15:46.863Z,21.03
2024-05-09T10:18:14.837Z,21.20
2024-05-09T10:20:46.160Z,21.72
2024-05-09T10:23:26.547Z,21.26
2024-05-09T10:26:05.214Z,20.75
2024-05-09T10:28:33.865Z,20.75
2024-05-09T10:31:20.803Z,20.63
2024-05-09T10:33:50.250Z,20.39
2024-05-09T10:36:27.205Z,20.04
2024-05-09T10:38:55.114Z,19.76
2024-05-09T10:41:23.491Z,19.98
2024-05-09T10:43:50.970Z,20.09
2024-05-09T10:46:21.183Z,20.35
2024-05-09T10:48:48.839Z,20.69
2024-05-09T10:51:18.311Z,20.95
2024-05-09T10:53:47.220Z,21.60
2024-05-09T10:56:14.893Z,21.97
2024-05-09T10:58:42.209Z,22.28
2024-05-09T11:01:10.263Z,22.26
2024-05-09T11:03:38.153Z,22.61
2024-05-09T11:06:05.770Z,22.94
2024-05-09T11:08:33.548Z,23.04
2024-05-09T11:11:00.547Z,23.44
2024-05-09T11:13:31.526Z,23.22
2024-05-09T11:16:00.023Z,22.44
2024-05-09T11:18:32.320Z,22.23
2024-05-09T11:21:02.427Z,22.06
2024-05-09T11:23:32.046Z,22.13
2024-05-09T11:25:59.434Z,22.49
2024-05-09T11:28:28.810Z,22.93
2024-05-09T11:31:07.587Z,22.79
2024-05-09T11:33:43.816Z,22.79
2024-05-09T11:36:11.088Z,22.80
2024-05-09T11:38:37.898Z,22.64
2024-05-09T11:41:05.592Z,22.75
2024-05-09T11:43:33.058Z,22.82
2024-05-09T11:46:00.531Z,22.76
2024-05-09T11:48:27.798Z,23.02
2024-05-09T11:50:55.456Z,23.34
2024-05-09T11:53:22.817Z,23.47
2024-05-09T11:55:49.732Z,23.08
2024-05-09T11:58:18.186Z,22.38
2024-05-09T12:00:45.827Z,21.95
2024-05-09T12:03:13.044Z,21.78
2024-05-09T12:05:39.916Z,21.69
2024-05-09T12:08:07.215Z,22.13
2024-05-09T12:10:35.987Z,22.47
2024-05-09T12:13:05.526Z,22.60
2024-05-09T12:15:36.275Z,22.97
2024-05-09T12:18:04.438Z,23.11
2024-05-09T12:20:36.940Z,23.51
2024-05-09T12:23:06.768Z,23.12
2024-05-09T12:25:33.762Z,22.52
2024-05-09T12:28:01.214Z,22.26
2024-05-09T12:30:36.226Z,22.38
2024-05-09T12:33:11.855Z,22.13
2024-05-09T12:35:40.340Z,21.89
2024-05-09T12:38:07.032Z,21.82
2024-05-09T12:40:37.088Z,21.82
2024-05-09T12:43:10.310Z,21.82
2024-05-09T12:45:38.385Z,21.96
2024-05-09T12:48:08.374Z,21.81
2024-05-09T12:50:36.585Z,21.94
2024-05-09T12:53:04.571Z,22.02
2024-05-09T12:55:40.499Z,21.75
2024-05-09T12:58:16.406Z,21.43
2024-05-09T13:00:43.770Z,21.62
2024-05-09T13:03:11.143Z,21.74
2024-05-09T13:05:38.241Z,21.76
2024-05-09T13:08:05.370Z,21.54
2024-05-09T13:10:33.378Z,21.12
2024-05-09T13:13:01.690Z,20.98
2024-05-09T13:15:30.455Z,20.76
2024-05-09T13:18:00.444Z,20.63
2024-05-09T13:20:33.421Z,20.74
2024-05-09T13:23:03.491Z,20.78
2024-05-09T13:25:30.286Z,20.76
2024-05-09T13:27:57.695Z,20.75
2024-05-09T13:30:30.037Z,20.47
2024-05-09T13:33:06.075Z,20.31
2024-05-09T13:35:35.354Z,20.25
2024-05-09T13:38:03.230Z,19.78
2024-05-09T13:40:34.299Z,19.26
2024-05-09T13:43:04.353Z,18.95
2024-05-09T13:45:31.495Z,18.81
2024-05-09T13:47:58.860Z,18.51
2024-05-09T13:50:33.307Z,18.52
2024-05-09T13:53:03.084Z,18.81
2024-05-09T13:55:29.995Z,18.85
2024-05-09T13:57:56.913Z,18.74
2024-05-09T14:00:37.790Z,18.77
2024-05-09T14:03:10.812Z,18.77
2024-05-09T14:05:38.212Z,18.66
2024-05-09T14:08:05.758Z,18.70
2024-05-09T14:10:32.972Z,18.74
2024-05-09T14:13:01.269Z,18.79
2024-05-09T14:15:28.309Z,18.98
2024-05-09T14:17:55.669Z,18.90
2024-05-09T14:20:30.574Z,18.72
2024-05-09T14:23:00.395Z,18.81
2024-05-09T14:25:28.640Z,19.14
2024-05-09T14:27:57.457Z,19.40
2024-05-09T14:30:31.022Z,19.57
2024-05-09T14:33:03.766Z,19.72
2024-05-09T14:35:30.636Z,19.80
2024-05-09T14:37:57.297Z,19.74
2024-05-09T14:42:53.640Z,19.87
2024-05-09T14:45:20.421Z,19.85
2024-05-09T14:47:47.219Z,19.75
2024-05-09T14:50:23.518Z,19.89
2024-05-09T14:52:54.833Z,19.88
2024-05-09T14:55:21.621Z,19.73
2024-05-09T14:57:48.797Z,19.65
2024-05-09T15:00:24.746Z,19.56
2024-05-09T15:02:53.202Z,19.42
2024-05-09T15:05:20.111Z,19.15
2024-05-09T15:07:46.935Z,19.10
2024-05-09T15:10:23.860Z,19.23
2024-05-09T15:12:58.291Z,19.21
2024-05-09T15:15:25.009Z,19.04
2024-05-09T15:17:52.537Z,19.00
2024-05-09T15:20:27.605Z,19.04
2024-05-09T15:23:00.960Z,19.09
2024-05-09T15:25:27.728Z,19.15
2024-05-09T15:27:54.891Z,19.00
2024-05-09T15:30:29.916Z,18.94
2024-05-09T15:32:59.234Z,19.04
2024-05-09T15:35:25.982Z,18.96
2024-05-09T15:37:52.798Z,18.96
2024-05-09T15:40:30.393Z,18.91
2024-05-09T15:43:04.788Z,18.88
2024-05-09T15:45:32.029Z,19.03
2024-05-09T15:47:59.414Z,19.13
2024-05-09T15:50:36.246Z,18.97
2024-05-09T15:53:07.910Z,18.73
2024-05-09T15:55:35.678Z,18.68
2024-05-09T15:58:03.852Z,18.63
2024-05-09T16:00:38.350Z,18.44
2024-05-09T16:03:09.419Z,18.12
2024-05-09T16:05:36.926Z,18.11
2024-05-09T16:08:04.630Z,17.98
2024-05-09T16:10:33.351Z,17.91
2024-05-09T16:13:02.278Z,17.88
2024-05-09T16:15:29.815Z,17.89
2024-05-09T16:17:56.885Z,17.93
2024-05-09T16:22:54.483Z,18.10
2024-05-09T16:25:21.207Z,18.23
2024-05-09T16:27:48.231Z,18.27
2024-05-09T16:30:21.237Z,18.19
2024-05-09T16:32:55.016Z,18.11
2024-05-09T16:35:21.934Z,17.92
2024-05-09T16:37:49.006Z,17.62
2024-05-09T16:40:24.944Z,17.62
2024-05-09T16:43:03.742Z,17.59
2024-05-09T16:45:30.690Z,17.56
2024-05-09T16:47:58.062Z,17.43
2024-05-09T16:50:29.519Z,17.40
2024-05-09T16:52:59.792Z,17.52
2024-05-09T16:55:26.798Z,17.54
2024-05-09T16:57:53.671Z,17.53
2024-05-09T17:00:31.080Z,17.60
2024-05-09T17:03:06.678Z,17.56
2024-05-09T17:05:34.303Z,17.55
2024-05-09T17:08:01.513Z,17.52
2024-05-09T17:10:32.921Z,17.63
2024-05-09T17:13:02.341Z,17.70
2024-05-09T17:15:29.552Z,17.62
2024-05-09T17:17:56.676Z,17.47
2024-05-09T17:20:31.304Z,17.42
2024-05-09T17:23:02.365Z,17.48
2024-05-09T17:25:29.500Z,17.37
2024-05-09T17:27:56.785Z,17.26
2024-05-09T17:30:31.956Z,17.27
2024-05-09T17:33:03.635Z,17.51
2024-05-09T17:35:31.719Z,17.92
2024-05-09T17:37:59.716Z,18.28
2024-05-09T17:40:32.699Z,18.37
2024-05-09T17:43:03.101Z,18.19
2024-05-09T17:45:30.346Z,17.95
2024-05-09T17:47:57.510Z,17.59
2024-05-09T17:50:31.304Z,17.37
2024-05-09T17:53:02.362Z,17.20
2024-05-09T17:55:29.368Z,17.07
2024-05-09T17:57:56.390Z,16.78
2024-05-09T18:00:33.237Z,16.55
2024-05-09T18:03:05.950Z,16.53
2024-05-09T18:05:33.172Z,16.80
2024-05-09T18:08:00.114Z,16.99
2024-05-09T18:10:33.765Z,16.91
2024-05-09T18:13:05.842Z,16.89
2024-05-09T18:15:33.078Z,16.62
2024-05-09T18:18:00.225Z,16.40
2024-05-09T18:20:37.083Z,16.28
2024-05-09T18:23:09.337Z,16.15
2024-05-09T18:25:35.988Z,15.96
2024-05-09T18:28:03.682Z,15.83
2024-05-09T18:30:35.000Z,15.69
2024-05-09T18:33:05.403Z,15.59
2024-05-09T18:35:33.514Z,15.49
2024-05-09T18:38:00.559Z,15.42
2024-05-09T18:40:33.989Z,15.33
2024-05-09T18:43:05.626Z,15.22
2024-05-09T18:45:33.765Z,15.12
2024-05-09T18:48:00.909Z,15.02
2024-05-09T18:50:34.501Z,14.90
2024-05-09T18:53:12.155Z,14.82
2024-05-09T18:55:40.596Z,14.71
2024-05-09T18:58:09.933Z,14.61
2024-05-09T19:00:39.626Z,14.52
2024-05-09T19:03:10.783Z,14.39
2024-05-09T19:05:40.560Z,14.29
2024-05-09T19:08:08.530Z,14.20
2024-05-09T19:10:38.465Z,14.12
2024-05-09T19:13:09.403Z,14.02
2024-05-09T19:15:39.711Z,13.92
2024-05-09T19:18:07.642Z,13.84
2024-05-09T19:20:36.243Z,13.76
2024-05-09T19:23:04.613Z,13.68
2024-05-09T19:25:32.098Z,13.58
2024-05-09T19:27:59.284Z,13.51
2024-05-09T19:30:36.335Z,13.42
2024-05-09T19:33:07.500Z,13.32
2024-05-09T19:35:34.297Z,13.24
2024-05-09T19:38:01.296Z,13.15
2024-05-09T19:40:32.106Z,13.07
2024-05-09T19:43:05.537Z,12.98
2024-05-09T19:45:34.425Z,12.92
2024-05-09T19:48:02.305Z,12.89
2024-05-09T19:50:39.641Z,12.84
2024-05-09T19:53:11.362Z,12.78
2024-05-09T19:55:38.527Z,12.71
2024-05-09T19:58:07.230Z,12.66
2024-05-09T20:00:38.255Z,12.61
2024-05-09T20:03:07.633Z,12.55
2024-05-09T20:05:35.453Z,12.52
2024-05-09T20:08:02.532Z,12.48
2024-05-09T20:10:32.730Z,12.40
2024-05-09T20:13:02.175Z,12.33
2024-05-09T20:15:29.353Z,12.26
2024-05-09T20:17:56.226Z,12.16
2024-05-09T20:20:33.089Z,12.09
2024-05-09T20:23:06.141Z,12.01
2024-05-09T20:25:33.126Z,11.97
2024-05-09T20:28:00.064Z,11.89
2024-05-09T20:30:32.052Z,11.82
2024-05-09T20:33:02.858Z,11.73
2024-05-09T20:35:32.132Z,11.69
2024-05-09T20:37:59.351Z,11.65
2024-05-09T20:40:32.041Z,11.60
2024-05-09T20:43:02.423Z,11.58
2024-05-09T20:45:29.136Z,11.53
2024-05-09T20:47:56.186Z,11.45
2024-05-09T20:50:29.345Z,11.42
2024-05-09T20:53:03.974Z,11.37
2024-05-09T20:55:30.762Z,11.30
2024-05-09T20:57:57.793Z,11.26
2024-05-09T21:00:34.521Z,11.19
2024-05-09T21:03:06.926Z,11.14
2024-05-09T21:05:34.819Z,11.10
2024-05-09T21:08:02.036Z,11.06
2024-05-09T21:10:32.790Z,10.98
2024-05-09T21:13:02.084Z,10.91
2024-05-09T21:15:29.443Z,10.84
2024-05-09T21:17:56.221Z,10.79
2024-05-09T21:20:28.903Z,10.73
2024-05-09T21:22:58.630Z,10.67
2024-05-09T21:25:25.650Z,10.57
2024-05-09T21:27:52.958Z,10.55
2024-05-09T21:30:31.446Z,10.51
2024-05-09T21:33:07.710Z,10.47
2024-05-09T21:35:34.623Z,10.41
2024-05-09T21:38:01.319Z,10.36
2024-05-09T21:40:34.154Z,10.30
2024-05-09T21:43:03.426Z,10.21
2024-05-09T21:45:30.247Z,10.09
2024-05-09T21:47:57.066Z,10.01
2024-05-09T21:50:31.786Z,9.92
2024-05-09T21:53:05.630Z,9.83
2024-05-09T21:55:34.780Z,9.77
2024-05-09T21:58:01.912Z,9.68
2024-05-09T22:00:35.643Z,9.67
2024-05-09T22:03:06.202Z,9.67
2024-05-09T22:05:33.360Z,9.63
2024-05-09T22:08:00.526Z,9.55
2024-05-09T22:10:33.700Z,9.49
2024-05-09T22:13:04.038Z,9.48
2024-05-09T22:15:37.074Z,9.47
2024-05-09T22:18:05.525Z,9.41
2024-05-09T22:20:37.287Z,9.38
2024-05-09T22:23:06.301Z,9.33
2024-05-09T22:25:33.491Z,9.27
2024-05-09T22:28:01.896Z,9.20
2024-05-09T22:30:35.825Z,9.17
2024-05-09T22:33:11.152Z,9.16
2024-05-09T22:35:39.461Z,9.22
2024-05-09T22:38:06.553Z,9.19
2024-05-09T22:40:43.002Z,9.13
2024-05-09T22:43:23.690Z,9.13
2024-05-09T22:45:53.081Z,9.15
2024-05-09T22:48:20.393Z,9.20
2024-05-09T22:50:47.265Z,9.21
2024-05-09T22:53:13.967Z,9.13
2024-05-09T22:55:40.862Z,9.09
2024-05-09T22:58:07.755Z,9.02
2024-05-09T23:00:34.971Z,8.98
2024-05-09T23:03:02.355Z,9.05
2024-05-09T23:05:29.707Z,9.04
2024-05-09T23:07:56.752Z,8.99
2024-05-09T23:10:31.440Z,8.96
2024-05-09T23:13:03.024Z,8.94
2024-05-09T23:15:30.085Z,8.86
2024-05-09T23:17:58.532Z,8.79
2024-05-09T23:20:35.451Z,8.76
2024-05-09T23:23:06.539Z,8.71
2024-05-09T23:25:33.392Z,8.64
2024-05-09T23:28:00.364Z,8.54
2024-05-09T23:30:34.722Z,8.48
2024-05-09T23:33:06.175Z,8.41
2024-05-09T23:35:33.105Z,8.34
2024-05-09T23:37:59.829Z,8.28
2024-05-09T23:40:35.057Z,8.23
2024-05-09T23:43:06.344Z,8.18
2024-05-09T23:45:33.448Z,8.15
2024-05-09T23:48:00.509Z,8.13
2024-05-09T23:50:34.283Z,8.05
2024-05-09T23:53:04.497Z,8.05
2024-05-09T23:55:32.224Z,7.99
2024-05-09T23:57:59.470Z,7.97
